sensor_id;sensor_type;location;lat;lon;timestamp;P1;durP1;ratioP1;P2;durP2;ratioP2
52208;SDS011;38507;53.132;6.394;2024-03-17T00:00:42;11.80;;;2.13;;
52208;SDS011;38507;53.132;6.394;2024-03-17T00:03:08;8.73;;;2.22;;
52208;SDS011;38507;53.132;6.394;2024-03-17T00:05:37;9.38;;;2.75;;
52208;SDS011;38507;53.132;6.394;2024-03-17T00:08:03;10.85;;;2.28;;
52208;SDS011;38507;53.132;6.394;2024-03-17T00:10:33;7.88;;;1.88;;
52208;SDS011;38507;53.132;6.394;2024-03-17T00:13:00;7.13;;;2.35;;
52208;SDS011;38507;53.132;6.394;2024-03-17T00:15:28;11.57;;;2.22;;
52208;SDS011;38507;53.132;6.394;2024-03-17T00:17:54;7.90;;;2.40;;
52208;SDS011;38507;53.132;6.394;2024-03-17T00:20:20;13.63;;;2.78;;
52208;SDS011;38507;53.132;6.394;2024-03-17T00:22:47;11.25;;;2.83;;
52208;SDS011;38507;53.132;6.394;2024-03-17T00:25:13;10.13;;;2.10;;
52208;SDS011;38507;53.132;6.394;2024-03-17T00:27:39;7.18;;;2.20;;
52208;SDS011;38507;53.132;6.394;2024-03-17T00:30:08;6.45;;;2.03;;
52208;SDS011;38507;53.132;6.394;2024-03-17T00:32:38;8.23;;;2.13;;
52208;SDS011;38507;53.132;6.394;2024-03-17T00:35:05;9.38;;;2.33;;
52208;SDS011;38507;53.132;6.394;2024-03-17T00:37:34;9.98;;;2.50;;
52208;SDS011;38507;53.132;6.394;2024-03-17T00:40:01;11.30;;;2.50;;
52208;SDS011;38507;53.132;6.394;2024-03-17T00:42:27;7.93;;;2.60;;
52208;SDS011;38507;53.132;6.394;2024-03-17T00:44:53;7.63;;;2.40;;
52208;SDS011;38507;53.132;6.394;2024-03-17T00:47:18;7.22;;;2.70;;
52208;SDS011;38507;53.132;6.394;2024-03-17T00:49:45;8.80;;;2.30;;
52208;SDS011;38507;53.132;6.394;2024-03-17T00:52:10;9.85;;;2.50;;
52208;SDS011;38507;53.132;6.394;2024-03-17T00:54:36;6.45;;;2.40;;
52208;SDS011;38507;53.132;6.394;2024-03-17T00:57:02;9.23;;;2.60;;
52208;SDS011;38507;53.132;6.394;2024-03-17T00:59:27;8.45;;;2.90;;
52208;SDS011;38507;53.132;6.394;2024-03-17T01:01:53;8.88;;;2.65;;
52208;SDS011;38507;53.132;6.394;2024-03-17T01:04:18;8.57;;;2.35;;
52208;SDS011;38507;53.132;6.394;2024-03-17T01:06:44;10.95;;;3.35;;
52208;SDS011;38507;53.132;6.394;2024-03-17T01:09:11;7.78;;;2.63;;
52208;SDS011;38507;53.132;6.394;2024-03-17T01:11:36;6.03;;;2.13;;
52208;SDS011;38507;53.132;6.394;2024-03-17T01:14:02;8.77;;;2.40;;
52208;SDS011;38507;53.132;6.394;2024-03-17T01:16:28;10.18;;;2.17;;
52208;SDS011;38507;53.132;6.394;2024-03-17T01:18:53;5.00;;;2.13;;
52208;SDS011;38507;53.132;6.394;2024-03-17T01:21:19;6.30;;;2.15;;
52208;SDS011;38507;53.132;6.394;2024-03-17T01:23:47;9.35;;;2.20;;
52208;SDS011;38507;53.132;6.394;2024-03-17T01:26:13;8.07;;;2.00;;
52208;SDS011;38507;53.132;6.394;2024-03-17T01:28:39;7.95;;;2.45;;
52208;SDS011;38507;53.132;6.394;2024-03-17T01:31:07;6.90;;;2.40;;
52208;SDS011;38507;53.132;6.394;2024-03-17T01:33:33;7.70;;;2.00;;
52208;SDS011;38507;53.132;6.394;2024-03-17T01:35:59;8.48;;;2.22;;
52208;SDS011;38507;53.132;6.394;2024-03-17T01:38:24;5.50;;;2.05;;
52208;SDS011;38507;53.132;6.394;2024-03-17T01:40:50;7.25;;;2.20;;
52208;SDS011;38507;53.132;6.394;2024-03-17T01:43:16;6.93;;;2.22;;
52208;SDS011;38507;53.132;6.394;2024-03-17T01:45:42;6.80;;;2.08;;
52208;SDS011;38507;53.132;6.394;2024-03-17T01:48:12;5.13;;;1.70;;
52208;SDS011;38507;53.132;6.394;2024-03-17T01:50:41;7.55;;;1.60;;
52208;SDS011;38507;53.132;6.394;2024-03-17T01:53:08;5.32;;;2.03;;
52208;SDS011;38507;53.132;6.394;2024-03-17T01:55:35;5.43;;;1.70;;
52208;SDS011;38507;53.132;6.394;2024-03-17T01:58:03;5.90;;;2.25;;
52208;SDS011;38507;53.132;6.394;2024-03-17T02:00:32;5.35;;;1.70;;
52208;SDS011;38507;53.132;6.394;2024-03-17T02:02:59;4.60;;;1.83;;
52208;SDS011;38507;53.132;6.394;2024-03-17T02:05:25;7.90;;;1.70;;
52208;SDS011;38507;53.132;6.394;2024-03-17T02:07:52;8.90;;;1.88;;
52208;SDS011;38507;53.132;6.394;2024-03-17T02:10:17;6.72;;;1.83;;
52208;SDS011;38507;53.132;6.394;2024-03-17T02:12:43;8.65;;;2.10;;
52208;SDS011;38507;53.132;6.394;2024-03-17T02:15:09;5.60;;;1.80;;
52208;SDS011;38507;53.132;6.394;2024-03-17T02:17:35;6.18;;;1.92;;
52208;SDS011;38507;53.132;6.394;2024-03-17T02:20:00;4.88;;;1.65;;
52208;SDS011;38507;53.132;6.394;2024-03-17T02:22:32;7.97;;;1.80;;
52208;SDS011;38507;53.132;6.394;2024-03-17T02:25:01;6.50;;;1.77;;
52208;SDS011;38507;53.132;6.394;2024-03-17T02:27:27;3.97;;;1.58;;
52208;SDS011;38507;53.132;6.394;2024-03-17T02:29:54;4.35;;;1.60;;
52208;SDS011;38507;53.132;6.394;2024-03-17T02:32:20;5.85;;;1.70;;
52208;SDS011;38507;53.132;6.394;2024-03-17T02:34:47;9.52;;;2.13;;
52208;SDS011;38507;53.132;6.394;2024-03-17T02:37:13;6.60;;;1.60;;
52208;SDS011;38507;53.132;6.394;2024-03-17T02:39:39;4.68;;;1.95;;
52208;SDS011;38507;53.132;6.394;2024-03-17T02:42:08;7.20;;;2.00;;
52208;SDS011;38507;53.132;6.394;2024-03-17T02:44:35;5.15;;;1.77;;
52208;SDS011;38507;53.132;6.394;2024-03-17T02:47:03;7.43;;;1.88;;
52208;SDS011;38507;53.132;6.394;2024-03-17T02:49:30;5.72;;;1.90;;
52208;SDS011;38507;53.132;6.394;2024-03-17T02:52:02;5.45;;;1.80;;
52208;SDS011;38507;53.132;6.394;2024-03-17T02:54:37;4.68;;;1.60;;
52208;SDS011;38507;53.132;6.394;2024-03-17T02:57:04;5.72;;;1.95;;
52208;SDS011;38507;53.132;6.394;2024-03-17T02:59:31;7.35;;;2.10;;
52208;SDS011;38507;53.132;6.394;2024-03-17T03:01:57;6.03;;;1.98;;
52208;SDS011;38507;53.132;6.394;2024-03-17T03:04:24;4.10;;;1.77;;
52208;SDS011;38507;53.132;6.394;2024-03-17T03:06:50;5.78;;;2.00;;
52208;SDS011;38507;53.132;6.394;2024-03-17T03:09:15;7.60;;;1.92;;
52208;SDS011;38507;53.132;6.394;2024-03-17T03:11:45;8.75;;;2.13;;
52208;SDS011;38507;53.132;6.394;2024-03-17T03:14:11;8.90;;;2.30;;
52208;SDS011;38507;53.132;6.394;2024-03-17T03:16:37;4.03;;;1.70;;
52208;SDS011;38507;53.132;6.394;2024-03-17T03:19:03;8.35;;;2.08;;
52208;SDS011;38507;53.132;6.394;2024-03-17T03:21:30;9.07;;;2.05;;
52208;SDS011;38507;53.132;6.394;2024-03-17T03:23:59;8.05;;;2.63;;
52208;SDS011;38507;53.132;6.394;2024-03-17T03:26:24;9.82;;;2.25;;
52208;SDS011;38507;53.132;6.394;2024-03-17T03:28:50;7.80;;;2.10;;
52208;SDS011;38507;53.132;6.394;2024-03-17T03:31:16;4.95;;;2.30;;
52208;SDS011;38507;53.132;6.394;2024-03-17T03:33:42;5.55;;;2.00;;
52208;SDS011;38507;53.132;6.394;2024-03-17T03:36:09;6.78;;;2.58;;
52208;SDS011;38507;53.132;6.394;2024-03-17T03:38:36;8.73;;;2.20;;
52208;SDS011;38507;53.132;6.394;2024-03-17T03:41:08;9.80;;;2.78;;
52208;SDS011;38507;53.132;6.394;2024-03-17T03:43:35;10.00;;;2.55;;
52208;SDS011;38507;53.132;6.394;2024-03-17T03:46:01;10.40;;;2.40;;
52208;SDS011;38507;53.132;6.394;2024-03-17T03:48:28;6.88;;;2.15;;
52208;SDS011;38507;53.132;6.394;2024-03-17T03:50:56;6.90;;;2.10;;
52208;SDS011;38507;53.132;6.394;2024-03-17T03:53:22;6.18;;;2.45;;
52208;SDS011;38507;53.132;6.394;2024-03-17T03:55:48;13.40;;;3.03;;
52208;SDS011;38507;53.132;6.394;2024-03-17T03:58:16;8.52;;;2.30;;
52208;SDS011;38507;53.132;6.394;2024-03-17T04:00:42;7.35;;;2.20;;
52208;SDS011;38507;53.132;6.394;2024-03-17T04:03:07;12.82;;;3.13;;
52208;SDS011;38507;53.132;6.394;2024-03-17T04:05:33;9.18;;;3.10;;
52208;SDS011;38507;53.132;6.394;2024-03-17T04:07:59;14.00;;;3.50;;
52208;SDS011;38507;53.132;6.394;2024-03-17T04:10:29;7.32;;;2.38;;
52208;SDS011;38507;53.132;6.394;2024-03-17T04:12:55;8.20;;;2.70;;
52208;SDS011;38507;53.132;6.394;2024-03-17T04:15:22;5.57;;;3.08;;
52208;SDS011;38507;53.132;6.394;2024-03-17T04:17:48;8.55;;;2.25;;
52208;SDS011;38507;53.132;6.394;2024-03-17T04:20:14;12.68;;;2.67;;
52208;SDS011;38507;53.132;6.394;2024-03-17T04:22:42;9.15;;;2.92;;
52208;SDS011;38507;53.132;6.394;2024-03-17T04:25:08;9.48;;;2.97;;
52208;SDS011;38507;53.132;6.394;2024-03-17T04:27:36;6.78;;;2.40;;
52208;SDS011;38507;53.132;6.394;2024-03-17T04:30:01;6.78;;;2.40;;
52208;SDS011;38507;53.132;6.394;2024-03-17T04:32:30;8.75;;;2.97;;
52208;SDS011;38507;53.132;6.394;2024-03-17T04:34:57;7.40;;;1.92;;
52208;SDS011;38507;53.132;6.394;2024-03-17T04:37:22;10.80;;;2.42;;
52208;SDS011;38507;53.132;6.394;2024-03-17T04:40:06;10.20;;;2.47;;
52208;SDS011;38507;53.132;6.394;2024-03-17T04:42:34;9.32;;;2.55;;
52208;SDS011;38507;53.132;6.394;2024-03-17T04:45:00;7.38;;;2.40;;
52208;SDS011;38507;53.132;6.394;2024-03-17T04:47:26;8.27;;;2.53;;
52208;SDS011;38507;53.132;6.394;2024-03-17T04:49:51;14.27;;;2.30;;
52208;SDS011;38507;53.132;6.394;2024-03-17T04:52:17;6.82;;;2.65;;
52208;SDS011;38507;53.132;6.394;2024-03-17T04:54:43;7.40;;;2.40;;
52208;SDS011;38507;53.132;6.394;2024-03-17T04:57:09;9.23;;;2.10;;
52208;SDS011;38507;53.132;6.394;2024-03-17T04:59:35;9.52;;;2.40;;
52208;SDS011;38507;53.132;6.394;2024-03-17T05:02:01;9.63;;;2.50;;
52208;SDS011;38507;53.132;6.394;2024-03-17T05:04:27;10.75;;;2.53;;
52208;SDS011;38507;53.132;6.394;2024-03-17T05:06:53;8.98;;;2.17;;
52208;SDS011;38507;53.132;6.394;2024-03-17T05:09:19;7.10;;;2.10;;
52208;SDS011;38507;53.132;6.394;2024-03-17T05:11:45;8.35;;;2.40;;
52208;SDS011;38507;53.132;6.394;2024-03-17T05:14:12;9.35;;;2.65;;
52208;SDS011;38507;53.132;6.394;2024-03-17T05:16:38;11.65;;;2.75;;
52208;SDS011;38507;53.132;6.394;2024-03-17T05:19:04;12.52;;;2.53;;
52208;SDS011;38507;53.132;6.394;2024-03-17T05:21:30;7.97;;;2.50;;
52208;SDS011;38507;53.132;6.394;2024-03-17T05:23:56;13.13;;;2.60;;
52208;SDS011;38507;53.132;6.394;2024-03-17T05:26:23;9.13;;;2.92;;
52208;SDS011;38507;53.132;6.394;2024-03-17T05:28:49;14.70;;;3.00;;
52208;SDS011;38507;53.132;6.394;2024-03-17T05:31:15;7.75;;;2.58;;
52208;SDS011;38507;53.132;6.394;2024-03-17T05:33:42;10.57;;;2.88;;
52208;SDS011;38507;53.132;6.394;2024-03-17T05:36:11;10.65;;;2.28;;
52208;SDS011;38507;53.132;6.394;2024-03-17T05:38:36;12.10;;;2.50;;
52208;SDS011;38507;53.132;6.394;2024-03-17T05:41:03;14.00;;;2.80;;
52208;SDS011;38507;53.132;6.394;2024-03-17T05:43:39;12.82;;;2.47;;
52208;SDS011;38507;53.132;6.394;2024-03-17T05:46:05;8.20;;;2.92;;
52208;SDS011;38507;53.132;6.394;2024-03-17T05:48:33;8.23;;;2.60;;
52208;SDS011;38507;53.132;6.394;2024-03-17T05:51:00;10.77;;;2.58;;
52208;SDS011;38507;53.132;6.394;2024-03-17T05:53:27;13.68;;;2.97;;
52208;SDS011;38507;53.132;6.394;2024-03-17T05:55:53;7.50;;;2.55;;
52208;SDS011;38507;53.132;6.394;2024-03-17T05:58:20;9.95;;;2.75;;
52208;SDS011;38507;53.132;6.394;2024-03-17T06:00:46;13.20;;;2.97;;
52208;SDS011;38507;53.132;6.394;2024-03-17T06:03:11;8.82;;;3.28;;
52208;SDS011;38507;53.132;6.394;2024-03-17T06:05:39;13.50;;;2.97;;
52208;SDS011;38507;53.132;6.394;2024-03-17T06:08:10;14.80;;;3.22;;
52208;SDS011;38507;53.132;6.394;2024-03-17T06:10:37;7.65;;;2.65;;
52208;SDS011;38507;53.132;6.394;2024-03-17T06:13:03;11.35;;;3.35;;
52208;SDS011;38507;53.132;6.394;2024-03-17T06:15:29;14.05;;;2.55;;
52208;SDS011;38507;53.132;6.394;2024-03-17T06:17:55;9.55;;;2.97;;
52208;SDS011;38507;53.132;6.394;2024-03-17T06:20:22;9.43;;;2.80;;
52208;SDS011;38507;53.132;6.394;2024-03-17T06:22:49;10.63;;;3.13;;
52208;SDS011;38507;53.132;6.394;2024-03-17T06:25:15;13.23;;;3.08;;
52208;SDS011;38507;53.132;6.394;2024-03-17T06:27:41;6.15;;;2.78;;
52208;SDS011;38507;53.132;6.394;2024-03-17T06:30:11;10.68;;;2.83;;
52208;SDS011;38507;53.132;6.394;2024-03-17T06:32:39;8.88;;;2.85;;
52208;SDS011;38507;53.132;6.394;2024-03-17T06:35:06;8.88;;;3.03;;
52208;SDS011;38507;53.132;6.394;2024-03-17T06:37:32;7.72;;;3.40;;
52208;SDS011;38507;53.132;6.394;2024-03-17T06:39:58;11.82;;;3.22;;
52208;SDS011;38507;53.132;6.394;2024-03-17T06:42:24;8.70;;;2.80;;
52208;SDS011;38507;53.132;6.394;2024-03-17T06:44:49;8.95;;;3.47;;
52208;SDS011;38507;53.132;6.394;2024-03-17T06:47:16;10.35;;;3.33;;
52208;SDS011;38507;53.132;6.394;2024-03-17T06:49:41;14.48;;;3.33;;
52208;SDS011;38507;53.132;6.394;2024-03-17T06:52:08;13.40;;;3.05;;
52208;SDS011;38507;53.132;6.394;2024-03-17T06:54:34;10.48;;;3.22;;
52208;SDS011;38507;53.132;6.394;2024-03-17T06:57:00;12.63;;;3.13;;
52208;SDS011;38507;53.132;6.394;2024-03-17T06:59:26;9.10;;;3.25;;
52208;SDS011;38507;53.132;6.394;2024-03-17T07:01:52;11.82;;;3.35;;
52208;SDS011;38507;53.132;6.394;2024-03-17T07:04:17;11.38;;;2.97;;
52208;SDS011;38507;53.132;6.394;2024-03-17T07:06:43;14.07;;;2.92;;
52208;SDS011;38507;53.132;6.394;2024-03-17T07:09:09;11.02;;;3.05;;
52208;SDS011;38507;53.132;6.394;2024-03-17T07:11:35;12.07;;;3.08;;
52208;SDS011;38507;53.132;6.394;2024-03-17T07:14:01;10.05;;;2.53;;
52208;SDS011;38507;53.132;6.394;2024-03-17T07:16:27;14.15;;;2.40;;
52208;SDS011;38507;53.132;6.394;2024-03-17T07:18:54;8.90;;;2.67;;
52208;SDS011;38507;53.132;6.394;2024-03-17T07:21:21;11.82;;;2.83;;
52208;SDS011;38507;53.132;6.394;2024-03-17T07:23:46;8.55;;;2.28;;
52208;SDS011;38507;53.132;6.394;2024-03-17T07:26:12;9.55;;;2.90;;
52208;SDS011;38507;53.132;6.394;2024-03-17T07:28:39;7.78;;;2.65;;
52208;SDS011;38507;53.132;6.394;2024-03-17T07:31:05;10.80;;;2.90;;
52208;SDS011;38507;53.132;6.394;2024-03-17T07:33:34;8.15;;;2.42;;
52208;SDS011;38507;53.132;6.394;2024-03-17T07:36:00;8.15;;;2.60;;
52208;SDS011;38507;53.132;6.394;2024-03-17T07:38:42;14.38;;;2.25;;
52208;SDS011;38507;53.132;6.394;2024-03-17T07:41:08;9.32;;;2.05;;
52208;SDS011;38507;53.132;6.394;2024-03-17T07:43:37;8.73;;;2.72;;
52208;SDS011;38507;53.132;6.394;2024-03-17T07:46:14;9.32;;;2.25;;
52208;SDS011;38507;53.132;6.394;2024-03-17T07:48:46;8.35;;;2.10;;
52208;SDS011;38507;53.132;6.394;2024-03-17T07:51:13;7.82;;;2.25;;
52208;SDS011;38507;53.132;6.394;2024-03-17T07:53:40;12.57;;;2.53;;
52208;SDS011;38507;53.132;6.394;2024-03-17T07:56:08;12.60;;;2.67;;
52208;SDS011;38507;53.132;6.394;2024-03-17T07:58:35;10.00;;;2.30;;
52208;SDS011;38507;53.132;6.394;2024-03-17T08:01:06;7.20;;;2.22;;
52208;SDS011;38507;53.132;6.394;2024-03-17T08:03:35;9.23;;;2.42;;
52208;SDS011;38507;53.132;6.394;2024-03-17T08:06:05;13.38;;;2.60;;
52208;SDS011;38507;53.132;6.394;2024-03-17T08:08:32;7.00;;;2.35;;
52208;SDS011;38507;53.132;6.394;2024-03-17T08:10:58;10.20;;;2.42;;
52208;SDS011;38507;53.132;6.394;2024-03-17T08:13:24;10.75;;;2.65;;
52208;SDS011;38507;53.132;6.394;2024-03-17T08:16:00;11.75;;;2.83;;
52208;SDS011;38507;53.132;6.394;2024-03-17T08:18:27;7.05;;;2.80;;
52208;SDS011;38507;53.132;6.394;2024-03-17T08:20:53;9.02;;;2.33;;
52208;SDS011;38507;53.132;6.394;2024-03-17T08:23:19;13.00;;;2.85;;
52208;SDS011;38507;53.132;6.394;2024-03-17T08:25:58;12.88;;;3.38;;
52208;SDS011;38507;53.132;6.394;2024-03-17T08:28:25;5.35;;;2.20;;
52208;SDS011;38507;53.132;6.394;2024-03-17T08:30:59;12.63;;;3.10;;
52208;SDS011;38507;53.132;6.394;2024-03-17T08:33:28;12.13;;;3.05;;
52208;SDS011;38507;53.132;6.394;2024-03-17T08:35:56;13.23;;;3.60;;
52208;SDS011;38507;53.132;6.394;2024-03-17T08:38:31;9.02;;;3.22;;
52208;SDS011;38507;53.132;6.394;2024-03-17T08:40:58;10.05;;;3.28;;
52208;SDS011;38507;53.132;6.394;2024-03-17T08:43:31;8.60;;;2.97;;
52208;SDS011;38507;53.132;6.394;2024-03-17T08:45:57;12.98;;;3.22;;
52208;SDS011;38507;53.132;6.394;2024-03-17T08:48:28;12.43;;;3.45;;
52208;SDS011;38507;53.132;6.394;2024-03-17T08:50:58;11.00;;;3.75;;
52208;SDS011;38507;53.132;6.394;2024-03-17T08:53:26;14.15;;;3.92;;
52208;SDS011;38507;53.132;6.394;2024-03-17T08:55:52;14.57;;;4.45;;
52208;SDS011;38507;53.132;6.394;2024-03-17T08:58:18;11.43;;;4.15;;
52208;SDS011;38507;53.132;6.394;2024-03-17T09:00:44;12.05;;;4.85;;
52208;SDS011;38507;53.132;6.394;2024-03-17T09:03:10;10.38;;;4.50;;
52208;SDS011;38507;53.132;6.394;2024-03-17T09:05:37;10.13;;;4.47;;
52208;SDS011;38507;53.132;6.394;2024-03-17T09:08:03;11.48;;;4.85;;
52208;SDS011;38507;53.132;6.394;2024-03-17T09:10:29;14.18;;;5.90;;
52208;SDS011;38507;53.132;6.394;2024-03-17T09:12:55;19.20;;;5.90;;
52208;SDS011;38507;53.132;6.394;2024-03-17T09:15:20;13.30;;;5.72;;
52208;SDS011;38507;53.132;6.394;2024-03-17T09:17:46;15.35;;;6.38;;
52208;SDS011;38507;53.132;6.394;2024-03-17T09:20:12;13.57;;;6.03;;
52208;SDS011;38507;53.132;6.394;2024-03-17T09:22:40;14.73;;;6.15;;
52208;SDS011;38507;53.132;6.394;2024-03-17T09:25:06;11.93;;;5.45;;
52208;SDS011;38507;53.132;6.394;2024-03-17T09:27:32;11.52;;;6.13;;
52208;SDS011;38507;53.132;6.394;2024-03-17T09:29:59;16.48;;;6.20;;
52208;SDS011;38507;53.132;6.394;2024-03-17T09:32:25;12.20;;;6.35;;
52208;SDS011;38507;53.132;6.394;2024-03-17T09:34:51;16.67;;;7.13;;
52208;SDS011;38507;53.132;6.394;2024-03-17T09:37:16;15.75;;;6.20;;
52208;SDS011;38507;53.132;6.394;2024-03-17T09:39:42;21.88;;;6.75;;
52208;SDS011;38507;53.132;6.394;2024-03-17T09:42:15;15.57;;;6.35;;
52208;SDS011;38507;53.132;6.394;2024-03-17T09:44:44;15.65;;;6.20;;
52208;SDS011;38507;53.132;6.394;2024-03-17T09:47:12;13.27;;;6.20;;
52208;SDS011;38507;53.132;6.394;2024-03-17T09:49:44;16.23;;;6.18;;
52208;SDS011;38507;53.132;6.394;2024-03-17T09:52:13;15.13;;;7.25;;
52208;SDS011;38507;53.132;6.394;2024-03-17T09:54:48;13.25;;;6.35;;
52208;SDS011;38507;53.132;6.394;2024-03-17T09:57:21;16.80;;;6.57;;
52208;SDS011;38507;53.132;6.394;2024-03-17T09:59:52;15.73;;;6.20;;
52208;SDS011;38507;53.132;6.394;2024-03-17T10:02:18;12.55;;;6.03;;
52208;SDS011;38507;53.132;6.394;2024-03-17T10:04:44;13.02;;;6.47;;
52208;SDS011;38507;53.132;6.394;2024-03-17T10:07:11;11.73;;;5.93;;
52208;SDS011;38507;53.132;6.394;2024-03-17T10:09:36;11.43;;;6.25;;
52208;SDS011;38507;53.132;6.394;2024-03-17T10:12:02;14.70;;;6.40;;
52208;SDS011;38507;53.132;6.394;2024-03-17T10:14:28;13.90;;;7.00;;
52208;SDS011;38507;53.132;6.394;2024-03-17T10:16:54;13.88;;;6.30;;
52208;SDS011;38507;53.132;6.394;2024-03-17T10:21:49;13.98;;;7.25;;
52208;SDS011;38507;53.132;6.394;2024-03-17T10:24:23;18.27;;;7.28;;
52208;SDS011;38507;53.132;6.394;2024-03-17T10:26:51;12.68;;;6.40;;
52208;SDS011;38507;53.132;6.394;2024-03-17T10:31:49;12.43;;;6.28;;
52208;SDS011;38507;53.132;6.394;2024-03-17T10:34:19;14.77;;;6.93;;
52208;SDS011;38507;53.132;6.394;2024-03-17T10:36:49;10.35;;;6.50;;
52208;SDS011;38507;53.132;6.394;2024-03-17T10:39:24;11.88;;;6.50;;
52208;SDS011;38507;53.132;6.394;2024-03-17T10:41:57;12.73;;;5.95;;
52208;SDS011;38507;53.132;6.394;2024-03-17T10:44:25;10.98;;;6.53;;
52208;SDS011;38507;53.132;6.394;2024-03-17T10:46:55;13.25;;;6.85;;
52208;SDS011;38507;53.132;6.394;2024-03-17T10:49:34;14.93;;;7.05;;
52208;SDS011;38507;53.132;6.394;2024-03-17T10:52:01;13.48;;;7.03;;
52208;SDS011;38507;53.132;6.394;2024-03-17T10:54:32;14.88;;;6.93;;
52208;SDS011;38507;53.132;6.394;2024-03-17T10:59:46;12.48;;;6.22;;
52208;SDS011;38507;53.132;6.394;2024-03-17T11:02:25;13.00;;;6.38;;
52208;SDS011;38507;53.132;6.394;2024-03-17T11:05:05;12.23;;;6.25;;
52208;SDS011;38507;53.132;6.394;2024-03-17T11:07:37;13.05;;;6.82;;
52208;SDS011;38507;53.132;6.394;2024-03-17T11:10:08;9.43;;;5.70;;
52208;SDS011;38507;53.132;6.394;2024-03-17T11:17:48;10.80;;;5.93;;
52208;SDS011;38507;53.132;6.394;2024-03-17T11:20:21;9.95;;;6.50;;
52208;SDS011;38507;53.132;6.394;2024-03-17T11:22:49;12.05;;;6.22;;
52208;SDS011;38507;53.132;6.394;2024-03-17T11:27:54;10.45;;;6.43;;
52208;SDS011;38507;53.132;6.394;2024-03-17T11:30:41;12.27;;;6.03;;
52208;SDS011;38507;53.132;6.394;2024-03-17T11:38:52;13.05;;;6.20;;
52208;SDS011;38507;53.132;6.394;2024-03-17T11:49:30;12.73;;;6.88;;
52208;SDS011;38507;53.132;6.394;2024-03-17T11:57:09;14.20;;;6.72;;
52208;SDS011;38507;53.132;6.394;2024-03-17T11:59:36;14.18;;;7.28;;
52208;SDS011;38507;53.132;6.394;2024-03-17T12:02:06;10.38;;;6.63;;
52208;SDS011;38507;53.132;6.394;2024-03-17T12:04:45;11.00;;;6.50;;
52208;SDS011;38507;53.132;6.394;2024-03-17T12:07:12;13.73;;;7.10;;
52208;SDS011;38507;53.132;6.394;2024-03-17T12:09:39;11.20;;;7.40;;
52208;SDS011;38507;53.132;6.394;2024-03-17T12:12:13;11.57;;;7.15;;
52208;SDS011;38507;53.132;6.394;2024-03-17T12:14:46;11.18;;;6.50;;
52208;SDS011;38507;53.132;6.394;2024-03-17T12:17:13;12.25;;;6.72;;
52208;SDS011;38507;53.132;6.394;2024-03-17T12:19:45;12.70;;;6.65;;
52208;SDS011;38507;53.132;6.394;2024-03-17T12:22:22;12.25;;;6.80;;
52208;SDS011;38507;53.132;6.394;2024-03-17T12:24:50;10.52;;;6.90;;
52208;SDS011;38507;53.132;6.394;2024-03-17T12:27:20;10.60;;;6.55;;
52208;SDS011;38507;53.132;6.394;2024-03-17T12:29:47;13.25;;;6.57;;
52208;SDS011;38507;53.132;6.394;2024-03-17T12:32:23;12.55;;;7.60;;
52208;SDS011;38507;53.132;6.394;2024-03-17T12:34:55;12.77;;;6.93;;
52208;SDS011;38507;53.132;6.394;2024-03-17T12:37:25;12.40;;;7.53;;
52208;SDS011;38507;53.132;6.394;2024-03-17T12:39:58;11.37;;;6.60;;
52208;SDS011;38507;53.132;6.394;2024-03-17T12:42:26;12.98;;;7.57;;
52208;SDS011;38507;53.132;6.394;2024-03-17T12:44:56;9.80;;;6.45;;
52208;SDS011;38507;53.132;6.394;2024-03-17T12:47:30;11.10;;;7.55;;
52208;SDS011;38507;53.132;6.394;2024-03-17T12:50:00;12.05;;;7.40;;
52208;SDS011;38507;53.132;6.394;2024-03-17T12:52:30;11.48;;;6.95;;
52208;SDS011;38507;53.132;6.394;2024-03-17T12:55:00;9.80;;;6.63;;
52208;SDS011;38507;53.132;6.394;2024-03-17T12:57:49;12.38;;;7.10;;
52208;SDS011;38507;53.132;6.394;2024-03-17T13:00:34;8.95;;;6.70;;
52208;SDS011;38507;53.132;6.394;2024-03-17T13:03:06;10.23;;;6.88;;
52208;SDS011;38507;53.132;6.394;2024-03-17T13:05:35;9.68;;;6.93;;
52208;SDS011;38507;53.132;6.394;2024-03-17T13:08:01;10.68;;;6.30;;
52208;SDS011;38507;53.132;6.394;2024-03-17T13:10:28;10.40;;;7.22;;
52208;SDS011;38507;53.132;6.394;2024-03-17T13:13:00;9.93;;;5.97;;
52208;SDS011;38507;53.132;6.394;2024-03-17T13:15:32;15.23;;;6.20;;
52208;SDS011;38507;53.132;6.394;2024-03-17T13:18:02;9.63;;;6.15;;
52208;SDS011;38507;53.132;6.394;2024-03-17T13:20:29;10.00;;;6.78;;
52208;SDS011;38507;53.132;6.394;2024-03-17T13:22:55;10.75;;;6.03;;
52208;SDS011;38507;53.132;6.394;2024-03-17T13:25:23;9.95;;;6.32;;
52208;SDS011;38507;53.132;6.394;2024-03-17T13:27:51;9.77;;;6.32;;
52208;SDS011;38507;53.132;6.394;2024-03-17T13:30:18;10.90;;;6.78;;
52208;SDS011;38507;53.132;6.394;2024-03-17T13:32:47;9.80;;;6.00;;
52208;SDS011;38507;53.132;6.394;2024-03-17T13:35:17;10.27;;;5.95;;
52208;SDS011;38507;53.132;6.394;2024-03-17T13:37:48;12.93;;;6.88;;
52208;SDS011;38507;53.132;6.394;2024-03-17T13:40:15;8.57;;;6.20;;
52208;SDS011;38507;53.132;6.394;2024-03-17T13:42:45;10.45;;;6.40;;
52208;SDS011;38507;53.132;6.394;2024-03-17T13:45:12;11.48;;;6.28;;
52208;SDS011;38507;53.132;6.394;2024-03-17T13:47:39;8.45;;;6.22;;
52208;SDS011;38507;53.132;6.394;2024-03-17T13:50:05;9.63;;;5.57;;
52208;SDS011;38507;53.132;6.394;2024-03-17T13:52:36;8.20;;;5.30;;
52208;SDS011;38507;53.132;6.394;2024-03-17T13:55:03;9.10;;;5.85;;
52208;SDS011;38507;53.132;6.394;2024-03-17T13:57:32;7.60;;;5.45;;
52208;SDS011;38507;53.132;6.394;2024-03-17T13:59:58;10.38;;;6.07;;
52208;SDS011;38507;53.132;6.394;2024-03-17T14:02:23;10.07;;;5.75;;
52208;SDS011;38507;53.132;6.394;2024-03-17T14:04:49;10.35;;;6.10;;
52208;SDS011;38507;53.132;6.394;2024-03-17T14:07:15;11.48;;;6.80;;
52208;SDS011;38507;53.132;6.394;2024-03-17T14:09:40;9.90;;;6.50;;
52208;SDS011;38507;53.132;6.394;2024-03-17T14:12:07;11.85;;;6.35;;
52208;SDS011;38507;53.132;6.394;2024-03-17T14:14:33;11.32;;;7.00;;
52208;SDS011;38507;53.132;6.394;2024-03-17T14:16:59;10.05;;;6.57;;
52208;SDS011;38507;53.132;6.394;2024-03-17T14:19:24;8.85;;;6.00;;
52208;SDS011;38507;53.132;6.394;2024-03-17T14:21:50;11.90;;;6.20;;
52208;SDS011;38507;53.132;6.394;2024-03-17T14:24:16;13.45;;;5.45;;
52208;SDS011;38507;53.132;6.394;2024-03-17T14:26:42;8.40;;;6.32;;
52208;SDS011;38507;53.132;6.394;2024-03-17T14:29:08;9.30;;;5.57;;
52208;SDS011;38507;53.132;6.394;2024-03-17T14:31:33;13.15;;;6.90;;
52208;SDS011;38507;53.132;6.394;2024-03-17T14:34:04;10.05;;;6.00;;
52208;SDS011;38507;53.132;6.394;2024-03-17T14:36:33;9.63;;;5.55;;
52208;SDS011;38507;53.132;6.394;2024-03-17T14:38:59;9.77;;;5.75;;
52208;SDS011;38507;53.132;6.394;2024-03-17T14:41:27;7.30;;;5.65;;
52208;SDS011;38507;53.132;6.394;2024-03-17T14:43:58;8.52;;;5.75;;
52208;SDS011;38507;53.132;6.394;2024-03-17T14:46:25;9.43;;;5.82;;
52208;SDS011;38507;53.132;6.394;2024-03-17T14:48:51;10.60;;;6.40;;
52208;SDS011;38507;53.132;6.394;2024-03-17T14:51:20;10.23;;;6.60;;
52208;SDS011;38507;53.132;6.394;2024-03-17T14:53:48;10.38;;;6.20;;
52208;SDS011;38507;53.132;6.394;2024-03-17T14:56:16;8.77;;;5.75;;
52208;SDS011;38507;53.132;6.394;2024-03-17T14:58:43;9.23;;;6.30;;
52208;SDS011;38507;53.132;6.394;2024-03-17T15:01:09;8.93;;;6.40;;
52208;SDS011;38507;53.132;6.394;2024-03-17T15:03:35;10.07;;;6.35;;
52208;SDS011;38507;53.132;6.394;2024-03-17T15:06:01;11.63;;;7.20;;
52208;SDS011;38507;53.132;6.394;2024-03-17T15:08:29;12.13;;;6.45;;
52208;SDS011;38507;53.132;6.394;2024-03-17T15:10:55;13.18;;;6.85;;
52208;SDS011;38507;53.132;6.394;2024-03-17T15:13:24;11.20;;;6.35;;
52208;SDS011;38507;53.132;6.394;2024-03-17T15:15:50;12.20;;;7.18;;
52208;SDS011;38507;53.132;6.394;2024-03-17T15:21:09;13.68;;;6.80;;